createdAt,value
2022-12-24T00:00:13.888Z,100429.91
2022-12-24T00:02:15.733Z,100428.19
2022-12-24T00:04:17.336Z,100429.91
2022-12-24T00:06:22.270Z,100429.03
2022-12-24T00:08:23.809Z,100435.19
2022-12-24T00:10:25.281Z,100432.59
2022-12-24T00:12:26.796Z,100424.75
2022-12-24T00:14:28.379Z,100427.38
2022-12-24T00:16:29.990Z,100428.25
2022-12-24T00:18:31.523Z,100431.75
2022-12-24T00:20:32.982Z,100424.78
2022-12-24T00:22:34.411Z,100428.25
2022-12-24T00:24:35.858Z,100423.91
2022-12-24T00:26:37.325Z,100436.13
2022-12-24T00:28:38.920Z,100428.25
2022-12-24T00:30:42.551Z,100421.25
2022-12-24T00:32:44.053Z,100420.41
2022-12-24T00:34:45.538Z,100421.28
2022-12-24T00:36:46.982Z,100424.78
2022-12-24T00:38:48.428Z,100431.78
2022-12-24T00:40:49.876Z,100441.41
2022-12-24T00:42:51.577Z,100447.56
2022-12-24T00:44:53.086Z,100456.34
2022-12-24T00:46:54.528Z,100449.44
2022-12-24T00:48:56.223Z,100464.28
2022-12-24T00:50:57.720Z,100451.19
2022-12-24T00:52:59.239Z,100438.94
2022-12-24T00:55:00.870Z,100421.44
2022-12-24T00:57:02.333Z,100409.19
2022-12-24T00:59:03.788Z,100434.53
2022-12-24T01:01:05.913Z,100448.53
2022-12-24T01:03:07.536Z,100466.03
2022-12-24T01:05:11.447Z,100475.63
2022-12-24T01:07:13.020Z,100477.41
2022-12-24T01:09:14.782Z,100477.41
2022-12-24T01:11:16.289Z,100484.38
2022-12-24T01:13:17.744Z,100484.41
2022-12-24T01:15:19.250Z,100480.88
2022-12-24T01:17:20.720Z,100482.59
2022-12-24T01:19:22.173Z,100486.94
2022-12-24T01:21:23.658Z,100486.94
2022-12-24T01:23:25.312Z,100489.53
2022-12-24T01:25:26.787Z,100499.13
2022-12-24T01:27:28.293Z,100496.50
2022-12-24T01:29:29.878Z,100501.75
2022-12-24T01:31:31.393Z,100506.09
2022-12-24T01:33:32.868Z,100496.47
2022-12-24T01:35:34.324Z,100493.00
2022-12-24T01:37:36.428Z,100507.84
2022-12-24T01:39:37.927Z,100508.69
2022-12-24T01:41:57.988Z,100511.31
2022-12-24T01:43:59.451Z,100510.44
2022-12-24T01:46:16.533Z,100506.06
2022-12-24T01:48:33.050Z,100503.47
2022-12-24T01:50:34.887Z,100507.84
2022-12-24T01:52:36.971Z,100496.47
2022-12-24T01:54:46.799Z,100503.44
2022-12-24T01:56:57.096Z,100504.31
2022-12-24T01:59:04.746Z,100502.56
2022-12-24T02:01:07.101Z,100508.69
2022-12-24T02:03:09.451Z,100512.19
2022-12-24T02:05:16.725Z,100506.06
2022-12-24T02:07:19.618Z,100506.94
2022-12-24T02:09:21.359Z,100510.44
2022-12-24T02:11:22.875Z,100514.84
2022-12-24T02:13:24.356Z,100510.47
2022-12-24T02:15:29.273Z,100503.47
2022-12-24T02:17:43.576Z,100516.59
2022-12-24T02:19:59.901Z,100520.06
2022-12-24T02:22:29.162Z,100514.84
2022-12-24T02:25:08.269Z,100522.72
2022-12-24T02:27:27.815Z,100533.22
2022-12-24T02:29:59.481Z,100535.84
2022-12-24T02:32:09.992Z,100534.09
2022-12-24T02:34:37.486Z,100544.56
2022-12-24T02:36:44.697Z,100543.72
2022-12-24T02:39:13.152Z,100544.56
2022-12-24T02:41:23.464Z,100542.81
2022-12-24T02:43:31.120Z,100547.19
2022-12-24T02:45:36.185Z,100542.84
2022-12-24T02:47:39.124Z,100548.09
2022-12-24T02:49:44.671Z,100554.19
2022-12-24T02:51:46.147Z,100547.19
2022-12-24T02:53:47.724Z,100553.31
2022-12-24T02:56:14.375Z,100550.69
2022-12-24T02:58:27.958Z,100547.19
2022-12-24T03:00:48.831Z,100553.31
2022-12-24T03:03:19.590Z,100555.97
2022-12-24T03:05:28.959Z,100561.22
2022-12-24T03:07:56.390Z,100556.03
2022-12-24T03:10:19.173Z,100557.75
2022-12-24T03:12:28.967Z,100562.09
2022-12-24T03:14:31.091Z,100560.34
2022-12-24T03:16:32.812Z,100566.47
2022-12-24T03:18:38.765Z,100568.19
2022-12-24T03:20:44.040Z,100574.28
2022-12-24T03:22:45.505Z,100580.38
2022-12-24T03:24:47.035Z,100580.38
2022-12-24T03:26:49.472Z,100586.50
2022-12-24T03:28:51.071Z,100583.00
2022-12-24T03:30:52.725Z,100593.47
2022-12-24T03:32:54.167Z,100594.34
2022-12-24T03:34:56.427Z,100599.56
2022-12-24T03:36:58.139Z,100599.63
2022-12-24T03:38:59.586Z,100601.34
2022-12-24T03:41:02.294Z,100602.22
2022-12-24T03:43:04.349Z,100596.97
2022-12-24T03:45:06.691Z,100595.25
2022-12-24T03:47:08.341Z,100593.50
2022-12-24T03:49:09.847Z,100595.22
2022-12-24T03:51:19.439Z,100594.34
2022-12-24T03:53:20.904Z,100601.34
2022-12-24T03:55:22.722Z,100603.16
2022-12-24T03:57:24.294Z,100604.94
2022-12-24T03:59:25.781Z,100595.31
2022-12-24T04:01:27.470Z,100604.91
2022-12-24T04:03:29.091Z,100611.88
2022-12-24T04:05:30.605Z,100615.34
2022-12-24T04:07:33.338Z,100617.97
2022-12-24T04:09:34.954Z,100627.56
2022-12-24T04:11:36.472Z,100628.41
2022-12-24T04:13:37.913Z,100628.41
2022-12-24T04:15:39.368Z,100635.38
2022-12-24T04:17:40.810Z,100628.38
2022-12-24T04:19:42.379Z,100631.88
2022-12-24T04:21:43.845Z,100630.97
2022-12-24T04:23:45.311Z,100634.44
2022-12-24T04:25:47.148Z,100629.19
2022-12-24T04:27:48.595Z,100638.78
2022-12-24T04:29:50.213Z,100632.66
2022-12-24T04:31:51.766Z,100641.41
2022-12-24T04:33:53.388Z,100642.28
2022-12-24T04:35:56.973Z,100646.66
2022-12-24T04:37:58.797Z,100640.56
2022-12-24T04:40:00.320Z,100643.19
2022-12-24T04:42:01.867Z,100651.94
2022-12-24T04:44:03.482Z,100651.94
2022-12-24T04:46:19.646Z,100650.13
2022-12-24T04:48:21.218Z,100650.97
2022-12-24T04:50:22.687Z,100663.16
2022-12-24T04:52:24.158Z,100659.59
2022-12-24T04:54:25.636Z,100661.34
2022-12-24T04:56:30.797Z,100665.66
2022-12-24T04:58:32.918Z,100658.63
2022-12-24T05:00:34.385Z,100661.19
2022-12-24T05:02:36.139Z,100658.56
2022-12-24T05:04:37.771Z,100667.28
2022-12-24T05:06:39.395Z,100661.09
2022-12-24T05:08:41.140Z,100670.69
2022-12-24T05:10:42.626Z,100667.06
2022-12-24T05:12:44.071Z,100669.59
2022-12-24T05:14:45.528Z,100675.63
2022-12-24T05:16:47.129Z,100674.69
2022-12-24T05:18:49.129Z,100667.59
2022-12-24T05:20:50.914Z,100665.75
2022-12-24T05:23:10.690Z,100664.84
2022-12-24T05:25:30.451Z,100671.75
2022-12-24T05:27:32.065Z,100676.00
2022-12-24T05:29:33.497Z,100674.19
2022-12-24T05:31:36.075Z,100679.38
2022-12-24T05:33:37.551Z,100677.56
2022-12-24T05:35:38.987Z,100680.13
2022-12-24T05:37:40.428Z,100685.31
2022-12-24T05:39:41.905Z,100687.88
2022-12-24T05:41:44.041Z,100687.81
2022-12-24T05:43:45.810Z,100700.88
2022-12-24T05:45:47.279Z,100701.66
2022-12-24T05:47:48.764Z,100709.44
2022-12-24T05:49:50.197Z,100713.72
2022-12-24T05:51:51.702Z,100718.00
2022-12-24T05:53:53.277Z,100717.00
2022-12-24T05:55:54.761Z,100726.59
2022-12-24T05:57:56.263Z,100719.56
2022-12-24T05:59:57.703Z,100728.31
2022-12-24T06:01:59.319Z,100733.47
2022-12-24T06:04:01.005Z,100731.69
2022-12-24T06:06:11.893Z,100729.00
2022-12-24T06:08:13.385Z,100730.75
2022-12-24T06:10:14.876Z,100744.72
2022-12-24T06:12:16.369Z,100741.13
2022-12-24T06:14:17.795Z,100740.22
2022-12-24T06:16:21.022Z,100741.94
2022-12-24T06:18:23.262Z,100736.63
2022-12-24T06:20:24.713Z,100738.28
2022-12-24T06:22:26.294Z,100740.91
2022-12-24T06:24:27.747Z,100747.03
2022-12-24T06:26:29.207Z,100749.63
2022-12-24T06:28:32.932Z,100749.66
2022-12-24T06:30:34.384Z,100757.44
2022-12-24T06:32:35.893Z,100764.44
2022-12-24T06:34:37.346Z,100760.06
2022-12-24T06:36:38.793Z,100761.81
2022-12-24T06:38:40.333Z,100763.53
2022-12-24T06:40:44.182Z,100774.94
2022-12-24T06:42:45.647Z,100782.78
2022-12-24T06:44:47.101Z,100783.66
2022-12-24T06:46:48.761Z,100769.59
2022-12-24T06:48:50.464Z,100770.50
2022-12-24T06:50:52.228Z,100774.91
2022-12-24T06:52:54.045Z,100781.94
2022-12-24T06:54:55.474Z,100774.94
2022-12-24T06:56:57.991Z,100783.75
2022-12-24T06:59:05.128Z,100777.66
2022-12-24T07:01:09.255Z,100779.38
2022-12-24T07:03:11.857Z,100799.59
2022-12-24T07:05:14.141Z,100807.56
2022-12-24T07:07:15.926Z,100813.72
2022-12-24T07:09:17.384Z,100816.41
2022-12-24T07:11:18.925Z,100814.69
2022-12-24T07:13:20.529Z,100822.56
2022-12-24T07:15:22.029Z,100828.69
2022-12-24T07:17:23.704Z,100840.03
2022-12-24T07:19:25.418Z,100836.53
2022-12-24T07:21:26.904Z,100849.69
2022-12-24T07:23:28.438Z,100841.78
2022-12-24T07:25:29.888Z,100843.47
2022-12-24T07:27:31.434Z,100842.59
2022-12-24T07:29:32.898Z,100852.22
2022-12-24T07:31:34.504Z,100849.56
2022-12-24T07:33:36.028Z,100848.66
2022-12-24T07:35:37.527Z,100845.16
2022-12-24T07:37:39.037Z,100860.91
2022-12-24T07:39:40.484Z,100866.13
2022-12-24T07:41:42.105Z,100863.44
2022-12-24T07:43:43.699Z,100872.19
2022-12-24T07:45:45.131Z,100864.28
2022-12-24T07:47:46.607Z,100863.41
2022-12-24T07:49:48.098Z,100865.16
2022-12-24T07:51:49.552Z,100872.16
2022-12-24T07:53:51.032Z,100873.88
2022-12-24T07:55:52.977Z,100885.22
2022-12-24T07:57:54.474Z,100887.84
2022-12-24T07:59:55.955Z,100891.38
2022-12-24T08:01:57.606Z,100889.66
2022-12-24T08:03:59.471Z,100887.84
2022-12-24T08:06:01.276Z,100898.38
2022-12-24T08:08:03.278Z,100905.38
2022-12-24T08:10:05.321Z,100902.72
2022-12-24T08:12:07.042Z,100909.69
2022-12-24T08:14:08.599Z,100907.97
2022-12-24T08:16:10.228Z,100919.34
2022-12-24T08:18:12.379Z,100911.47
2022-12-24T08:20:15.935Z,100914.09
2022-12-24T08:22:17.382Z,100917.63
2022-12-24T08:24:18.859Z,100927.22
2022-12-24T08:26:20.302Z,100917.59
2022-12-24T08:28:21.888Z,100926.31
2022-12-24T08:30:23.424Z,100926.31
2022-12-24T08:32:24.898Z,100934.16
2022-12-24T08:34:26.362Z,100934.97
2022-12-24T08:36:27.796Z,100936.72
2022-12-24T08:38:29.271Z,100953.34
2022-12-24T08:40:30.732Z,100954.19
2022-12-24T08:42:32.252Z,100960.28
2022-12-24T08:44:33.841Z,100962.00
2022-12-24T08:46:35.345Z,100957.59
2022-12-24T08:48:37.400Z,100964.59
2022-12-24T08:50:40.871Z,100964.56
2022-12-24T08:52:42.360Z,100964.56
2022-12-24T08:54:44.005Z,100974.13
2022-12-24T08:56:45.596Z,100975.78
2022-12-24T08:58:48.813Z,100975.72
2022-12-24T09:00:50.318Z,100985.31
2022-12-24T09:02:51.991Z,100974.75
2022-12-24T09:04:53.629Z,100981.75
2022-12-24T09:06:55.080Z,100981.75
2022-12-24T09:08:57.348Z,100993.09
2022-12-24T09:11:04.804Z,100993.97
2022-12-24T09:13:06.263Z,100991.34
2022-12-24T09:15:08.580Z,101002.72
2022-12-24T09:17:10.027Z,100995.72
2022-12-24T09:19:11.507Z,101002.66
2022-12-24T09:21:15.709Z,101005.16
2022-12-24T09:23:17.204Z,101009.44
2022-12-24T09:25:18.860Z,101012.84
2022-12-24T09:27:20.383Z,101013.66
2022-12-24T09:29:21.850Z,101018.84
2022-12-24T09:31:23.415Z,101023.22
2022-12-24T09:33:25.122Z,101025.88
2022-12-24T09:35:26.591Z,101031.16
2022-12-24T09:37:28.252Z,101035.56
2022-12-24T09:39:29.728Z,101038.16
2022-12-24T09:41:50.453Z,101041.69
2022-12-24T09:43:59.878Z,101039.94
2022-12-24T09:46:10.035Z,101050.50
2022-12-24T09:48:24.088Z,101051.41
2022-12-24T09:50:39.556Z,101056.72
2022-12-24T09:52:45.583Z,101059.41
2022-12-24T09:54:56.436Z,101063.78
2022-12-24T09:57:05.008Z,101064.69
2022-12-24T09:59:33.111Z,101062.94
2022-12-24T10:01:35.153Z,101069.03
2022-12-24T10:03:36.855Z,101068.97
2022-12-24T10:05:43.728Z,101073.31
2022-12-24T10:08:10.414Z,101077.63
2022-12-24T10:10:40.780Z,101079.34
2022-12-24T10:12:49.565Z,101081.03
2022-12-24T10:15:10.533Z,101082.75
2022-12-24T10:17:26.975Z,101080.13
2022-12-24T10:19:50.422Z,101084.53
2022-12-24T10:22:24.241Z,101087.16
2022-12-24T10:24:41.338Z,101089.78
2022-12-24T10:26:53.449Z,101093.28
2022-12-24T10:29:07.573Z,101095.88
2022-12-24T10:31:09.198Z,101095.88
2022-12-24T10:33:45.621Z,101099.34
2022-12-24T10:35:53.181Z,101102.88
2022-12-24T10:37:56.496Z,101104.66
2022-12-24T10:40:00.555Z,101103.75
2022-12-24T10:42:02.244Z,101103.78
2022-12-24T10:44:04.881Z,101105.53
2022-12-24T10:46:16.113Z,101101.16
2022-12-24T10:49:07.263Z,101108.22
2022-12-24T10:51:20.468Z,101109.03
2022-12-24T10:53:41.968Z,101122.19
2022-12-24T10:55:43.395Z,101124.81
2022-12-24T10:58:04.365Z,101130.91
2022-12-24T11:00:08.640Z,101124.75
2022-12-24T11:02:28.621Z,101120.31
2022-12-24T11:04:32.958Z,101120.28
2022-12-24T11:06:52.613Z,101112.31
2022-12-24T11:08:54.049Z,101113.94
2022-12-24T11:10:58.765Z,101116.41
2022-12-24T11:13:35.733Z,101122.16
2022-12-24T11:15:30.171Z,101118.63
2022-12-24T11:17:32.873Z,101119.63
2022-12-24T11:19:40.019Z,101127.25
2022-12-24T11:21:41.928Z,101122.34
2022-12-24T11:23:50.507Z,101121.78
2022-12-24T11:25:52.817Z,101122.13
2022-12-24T11:27:55.384Z,101131.19
2022-12-24T11:30:15.031Z,101119.00
2022-12-24T11:32:25.501Z,101112.50
2022-12-24T11:34:32.619Z,101106.81
2022-12-24T11:36:34.070Z,101105.84
2022-12-24T11:38:36.218Z,101105.03
2022-12-24T11:40:41.075Z,101102.47
2022-12-24T11:42:42.554Z,101104.38
2022-12-24T11:44:49.530Z,101098.28
2022-12-24T11:46:56.631Z,101107.22
2022-12-24T11:49:11.931Z,101108.16
2022-12-24T11:51:23.232Z,101111.75
2022-12-24T11:53:42.072Z,101110.03
2022-12-24T11:56:15.432Z,101103.00
2022-12-24T11:58:25.734Z,101108.31
2022-12-24T12:00:28.713Z,101108.31
2022-12-24T12:02:36.930Z,101110.09
2022-12-24T12:04:41.831Z,101114.44
2022-12-24T12:06:48.117Z,101117.94
2022-12-24T12:08:55.115Z,101124.06
2022-12-24T12:10:59.520Z,101126.75
2022-12-24T12:13:12.928Z,101131.16
2022-12-24T12:15:21.391Z,101127.66
2022-12-24T12:17:31.545Z,101127.63
2022-12-24T12:19:43.650Z,101128.44
2022-12-24T12:21:48.491Z,101144.28
2022-12-24T12:23:56.081Z,101149.59
2022-12-24T12:26:01.774Z,101161.03
2022-12-24T12:28:11.824Z,101155.81
2022-12-24T12:30:20.325Z,101156.75
2022-12-24T12:32:28.245Z,101158.53
2022-12-24T12:34:36.878Z,101155.00
2022-12-24T12:36:51.275Z,101157.63
2022-12-24T12:38:52.752Z,101156.78
2022-12-24T12:41:06.141Z,101151.50
2022-12-24T12:43:39.471Z,101160.25
2022-12-24T12:45:55.176Z,101155.81
2022-12-24T12:48:15.244Z,101154.94
2022-12-24T12:50:29.410Z,101155.78
2022-12-24T12:52:42.683Z,101160.19
2022-12-24T12:54:50.242Z,101160.16
2022-12-24T12:56:56.428Z,101165.44
2022-12-24T12:59:31.328Z,101162.84
2022-12-24T13:01:50.997Z,101166.31
2022-12-24T13:04:02.294Z,101163.72
2022-12-24T13:06:06.716Z,101166.31
2022-12-24T13:08:23.409Z,101168.09
2022-12-24T13:10:39.821Z,101168.03
2022-12-24T13:12:53.432Z,101164.53
2022-12-24T13:14:57.790Z,101165.41
2022-12-24T13:17:30.673Z,101166.31
2022-12-24T13:20:02.357Z,101167.19
2022-12-24T13:22:04.192Z,101170.72
2022-12-24T13:24:17.633Z,101179.50
2022-12-24T13:26:19.491Z,101178.66
2022-12-24T13:28:23.915Z,101183.91
2022-12-24T13:30:38.224Z,101185.66
2022-12-24T13:32:47.055Z,101189.06
2022-12-24T13:34:49.146Z,101180.28
2022-12-24T13:37:03.815Z,101183.75
2022-12-24T13:39:05.300Z,101189.97
2022-12-24T13:41:40.123Z,101196.97
2022-12-24T13:44:07.630Z,101195.22
2022-12-24T13:46:09.269Z,101208.38
2022-12-24T13:48:10.778Z,101211.91
2022-12-24T13:50:22.520Z,101216.28
2022-12-24T13:52:30.480Z,101209.22
2022-12-24T13:54:32.128Z,101223.28
2022-12-24T13:56:37.076Z,101216.16
2022-12-24T13:58:45.176Z,101225.72
2022-12-24T14:01:01.993Z,101213.38
2022-12-24T14:03:21.890Z,101221.25
2022-12-24T14:05:40.497Z,101225.69
2022-12-24T14:07:49.049Z,101229.28
2022-12-24T14:09:51.908Z,101236.41
2022-12-24T14:11:53.300Z,101236.53
2022-12-24T14:14:10.345Z,101230.41
2022-12-24T14:16:13.480Z,101237.50
2022-12-24T14:18:20.267Z,101241.97
2022-12-24T14:20:22.086Z,101240.25
2022-12-24T14:22:31.954Z,101236.78
2022-12-24T14:24:37.799Z,101239.47
2022-12-24T14:26:50.963Z,101241.34
2022-12-24T14:29:21.285Z,101255.53
2022-12-24T14:31:26.303Z,101254.78
2022-12-24T14:33:35.452Z,101258.38
2022-12-24T14:35:39.660Z,101265.50
2022-12-24T14:38:05.383Z,101266.47
2022-12-24T14:40:08.904Z,101281.47
2022-12-24T14:42:28.846Z,101279.81
2022-12-24T14:44:39.202Z,101288.66
2022-12-24T14:46:43.747Z,101293.97
2022-12-24T14:49:20.613Z,101295.75
2022-12-24T14:51:57.635Z,101298.44
2022-12-24T14:54:17.117Z,101308.13
2022-12-24T14:56:20.605Z,101307.25
2022-12-24T14:58:22.108Z,101315.22
2022-12-24T15:00:25.996Z,101313.53
2022-12-24T15:02:50.645Z,101312.69
2022-12-24T15:05:04.232Z,101311.88
2022-12-24T15:07:07.641Z,101318.06
2022-12-24T15:09:26.117Z,101315.44
2022-12-24T15:11:28.047Z,101323.41
2022-12-24T15:13:36.721Z,101325.25
2022-12-24T15:15:51.922Z,101326.16
2022-12-24T15:17:55.062Z,101336.75
2022-12-24T15:19:58.201Z,101346.38
2022-12-24T15:22:02.080Z,101346.41
2022-12-24T15:24:04.161Z,101355.22
2022-12-24T15:26:18.879Z,101354.34
2022-12-24T15:28:23.504Z,101362.28
2022-12-24T15:30:28.055Z,101357.06
2022-12-24T15:32:29.666Z,101368.50
2022-12-24T15:34:44.488Z,101364.97
2022-12-24T15:36:46.070Z,101376.44
2022-12-24T15:38:52.148Z,101371.19
2022-12-24T15:40:55.129Z,101378.25
2022-12-24T15:42:56.776Z,101375.69
2022-12-24T15:45:28.426Z,101379.19
2022-12-24T15:47:39.515Z,101378.34
2022-12-24T15:49:47.663Z,101381.00
2022-12-24T15:51:49.150Z,101386.28
2022-12-24T15:53:56.843Z,101388.00
2022-12-24T15:56:06.043Z,101395.88
2022-12-24T15:58:18.431Z,101402.88
2022-12-24T16:00:27.427Z,101399.38
2022-12-24T16:02:38.746Z,101392.38
2022-12-24T16:04:40.437Z,101406.41
2022-12-24T16:06:59.347Z,101412.53
2022-12-24T16:09:00.817Z,101405.50
2022-12-24T16:11:05.217Z,101418.69
2022-12-24T16:13:17.241Z,101417.78
2022-12-24T16:15:18.835Z,101432.72
2022-12-24T16:17:28.241Z,101430.94
2022-12-24T16:19:39.414Z,101431.81
2022-12-24T16:21:42.780Z,101438.84
2022-12-24T16:23:50.730Z,101426.56
2022-12-24T16:25:52.985Z,101437.09
2022-12-24T16:27:58.393Z,101436.22
2022-12-24T16:30:01.702Z,101440.59
2022-12-24T16:32:03.283Z,101444.94
2022-12-24T16:34:05.727Z,101444.06
2022-12-24T16:36:07.477Z,101447.53
2022-12-24T16:38:09.240Z,101451.91
2022-12-24T16:40:19.417Z,101458.06
2022-12-24T16:42:42.067Z,101451.03
2022-12-24T16:44:44.631Z,101449.28
2022-12-24T16:46:46.158Z,101451.06
2022-12-24T16:48:48.915Z,101453.69
2022-12-24T16:50:52.305Z,101458.09
2022-12-24T16:52:53.807Z,101462.47
2022-12-24T16:54:56.633Z,101458.97
2022-12-24T16:56:58.135Z,101464.22
2022-12-24T16:59:00.809Z,101472.09
2022-12-24T17:01:09.519Z,101469.50
2022-12-24T17:03:11.642Z,101470.41
2022-12-24T17:05:13.824Z,101470.41
2022-12-24T17:07:17.437Z,101472.13
2022-12-24T17:09:18.911Z,101480.03
2022-12-24T17:11:23.606Z,101481.78
2022-12-24T17:13:25.095Z,101481.78
2022-12-24T17:15:26.614Z,101484.41
2022-12-24T17:17:29.666Z,101476.53
2022-12-24T17:19:31.412Z,101482.66
2022-12-24T17:21:32.916Z,101480.94
2022-12-24T17:23:34.343Z,101489.69
2022-12-24T17:25:36.487Z,101491.44
2022-12-24T17:27:37.972Z,101488.78
2022-12-24T17:29:39.498Z,101490.50
2022-12-24T17:31:42.825Z,101492.19
2022-12-24T17:33:44.794Z,101489.53
2022-12-24T17:35:48.413Z,101492.19
2022-12-24T17:37:49.902Z,101494.88
2022-12-24T17:39:51.398Z,101508.94
2022-12-24T17:41:53.145Z,101501.06
2022-12-24T17:43:54.631Z,101501.94
2022-12-24T17:45:56.678Z,101497.53
2022-12-24T17:47:58.172Z,101504.53
2022-12-24T17:49:59.676Z,101504.56
2022-12-24T17:52:01.194Z,101504.56
2022-12-24T17:54:02.980Z,101508.97
2022-12-24T17:56:05.654Z,101503.75
2022-12-24T17:58:08.017Z,101513.44
2022-12-24T18:00:10.149Z,101517.81
2022-12-24T18:02:13.032Z,101520.47
2022-12-24T18:04:14.727Z,101520.44
2022-12-24T18:06:17.082Z,101517.81
2022-12-24T18:08:19.679Z,101526.59
2022-12-24T18:10:21.236Z,101527.50
2022-12-24T18:12:22.802Z,101521.38
2022-12-24T18:14:24.310Z,101521.38
2022-12-24T18:16:34.288Z,101524.03
2022-12-24T18:18:35.919Z,101518.81
2022-12-24T18:20:42.702Z,101531.16
2022-12-24T18:22:48.333Z,101525.94
2022-12-24T18:24:49.821Z,101525.97
2022-12-24T18:26:51.344Z,101532.13
2022-12-24T18:28:54.351Z,101533.00
2022-12-24T18:31:07.112Z,101530.41
2022-12-24T18:33:08.686Z,101526.03
2022-12-24T18:35:10.444Z,101535.72
2022-12-24T18:37:11.910Z,101531.31
2022-12-24T18:39:13.387Z,101527.84
2022-12-24T18:41:18.468Z,101523.50
2022-12-24T18:43:19.938Z,101522.63
2022-12-24T18:45:21.420Z,101528.78
2022-12-24T18:47:22.877Z,101527.91
2022-12-24T18:49:24.302Z,101526.16
2022-12-24T18:51:30.369Z,101529.66
2022-12-24T18:53:31.966Z,101523.56
2022-12-24T18:55:38.003Z,101534.94
2022-12-24T18:57:39.586Z,101540.22
2022-12-24T18:59:41.032Z,101540.22
2022-12-24T19:01:43.032Z,101535.84
2022-12-24T19:03:45.101Z,101541.13
2022-12-24T19:05:46.552Z,101542.03
2022-12-24T19:07:48.010Z,101535.91
2022-12-24T19:09:49.592Z,101539.44
2022-12-24T19:11:51.197Z,101535.09
2022-12-24T19:13:53.161Z,101537.72
2022-12-24T19:15:54.853Z,101531.59
2022-12-24T19:17:57.129Z,101535.97
2022-12-24T19:19:58.669Z,101542.16
2022-12-24T19:22:00.433Z,101530.81
2022-12-24T19:24:02.107Z,101536.09
2022-12-24T19:26:04.512Z,101536.09
2022-12-24T19:28:08.753Z,101542.25
2022-12-24T19:30:10.854Z,101540.53
2022-12-24T19:32:12.304Z,101555.41
2022-12-24T19:34:14.305Z,101550.16
2022-12-24T19:36:19.346Z,101558.97
2022-12-24T19:38:20.797Z,101555.47
2022-12-24T19:40:22.364Z,101559.00
2022-12-24T19:42:23.875Z,101557.25
2022-12-24T19:44:25.437Z,101558.16
2022-12-24T19:46:30.191Z,101560.75
2022-12-24T19:48:31.724Z,101572.16
2022-12-24T19:50:33.160Z,101566.03
2022-12-24T19:52:34.622Z,101567.78
2022-12-24T19:54:36.130Z,101574.78
2022-12-24T19:56:38.157Z,101575.66
2022-12-24T19:58:39.609Z,101571.28
2022-12-24T20:00:41.147Z,101572.16
2022-12-24T20:02:42.829Z,101579.16
2022-12-24T20:04:44.466Z,101580.03
2022-12-24T20:06:45.910Z,101582.66
2022-12-24T20:08:48.299Z,101579.16
2022-12-24T20:10:49.751Z,101576.53
2022-12-24T20:12:51.192Z,101588.78
2022-12-24T20:14:55.651Z,101596.66
2022-12-24T20:16:57.144Z,101588.78
2022-12-24T20:19:01.755Z,101600.16
2022-12-24T20:21:05.945Z,101605.38
2022-12-24T20:23:08.551Z,101613.22
2022-12-24T20:25:10.188Z,101620.22
2022-12-24T20:27:11.793Z,101621.97
2022-12-24T20:29:13.322Z,101626.31
2022-12-24T20:31:20.825Z,101620.22
2022-12-24T20:33:22.450Z,101619.34
2022-12-24T20:35:24.369Z,101625.44
2022-12-24T20:37:25.958Z,101624.56
2022-12-24T20:39:27.436Z,101632.41
2022-12-24T20:41:30.384Z,101623.66
2022-12-24T20:43:37.314Z,101623.66
2022-12-24T20:45:49.260Z,101627.13
2022-12-24T20:47:50.782Z,101637.59
2022-12-24T20:49:52.352Z,101635.84
2022-12-24T20:51:53.804Z,101640.19
2022-12-24T20:53:58.334Z,101634.06
2022-12-24T20:55:59.932Z,101644.50
2022-12-24T20:58:01.819Z,101647.13
2022-12-24T21:00:04.572Z,101652.34
2022-12-24T21:02:07.263Z,101654.06
2022-12-24T21:04:11.604Z,101651.44
2022-12-24T21:06:13.851Z,101657.53
2022-12-24T21:08:15.715Z,101665.41
2022-12-24T21:10:17.218Z,101660.16
2022-12-24T21:12:37.254Z,101647.88
2022-12-24T21:14:38.857Z,101643.47
2022-12-24T21:16:41.013Z,101646.97
2022-12-24T21:18:42.581Z,101646.94
2022-12-24T21:20:44.046Z,101646.94
2022-12-24T21:22:45.846Z,101650.41
2022-12-24T21:24:47.700Z,101649.50
2022-12-24T21:26:49.285Z,101662.59
2022-12-24T21:28:50.783Z,101652.09
2022-12-24T21:30:52.403Z,101659.94
2022-12-24T21:32:53.963Z,101658.19
2022-12-24T21:34:55.531Z,101652.03
2022-12-24T21:36:57.013Z,101652.88
2022-12-24T21:38:58.557Z,101655.50
2022-12-24T21:41:02.065Z,101658.94
2022-12-24T21:43:04.270Z,101651.94
2022-12-24T21:45:06.631Z,101658.03
2022-12-24T21:47:08.186Z,101651.91
2022-12-24T21:49:28.898Z,101647.53
2022-12-24T21:51:31.395Z,101637.88
2022-12-24T21:53:51.192Z,101642.22
2022-12-24T21:55:52.787Z,101639.56
2022-12-24T21:57:54.318Z,101637.78
2022-12-24T22:00:17.776Z,101643.00
2022-12-24T22:02:22.598Z,101640.34
2022-12-24T22:04:24.779Z,101634.22
2022-12-24T22:06:44.516Z,101627.25
2022-12-24T22:09:04.341Z,101631.53
2022-12-24T22:11:24.223Z,101631.50
2022-12-24T22:13:26.048Z,101633.22
2022-12-24T22:15:27.533Z,101631.47
2022-12-24T22:17:29.200Z,101638.44
2022-12-24T22:19:30.758Z,101633.16
2022-12-24T22:21:32.203Z,101628.78
2022-12-24T22:23:38.585Z,101634.00
2022-12-24T22:25:44.111Z,101634.84
2022-12-24T22:27:45.620Z,101628.72
2022-12-24T22:29:47.591Z,101622.59
2022-12-24T22:31:49.224Z,101626.06
2022-12-24T22:33:50.968Z,101626.03
2022-12-24T22:35:52.476Z,101631.19
2022-12-24T22:37:59.647Z,101624.22
2022-12-24T22:40:01.789Z,101622.44
2022-12-24T22:42:03.304Z,101622.44
2022-12-24T22:44:04.860Z,101625.03
2022-12-24T22:46:08.665Z,101625.00
2022-12-24T22:48:11.192Z,101613.66
2022-12-24T22:50:12.735Z,101616.28
2022-12-24T22:52:14.181Z,101618.88
2022-12-24T22:54:16.089Z,101618.88
2022-12-24T22:56:22.681Z,101628.41
2022-12-24T22:58:24.463Z,101628.41
2022-12-24T23:00:43.331Z,101623.22
2022-12-24T23:02:44.912Z,101621.50
2022-12-24T23:04:46.627Z,101610.22
2022-12-24T23:06:48.199Z,101612.03
2022-12-24T23:08:49.646Z,101621.66
2022-12-24T23:10:52.381Z,101615.59
2022-12-24T23:13:15.193Z,101624.31
2022-12-24T23:15:16.934Z,101626.91
2022-12-24T23:17:18.613Z,101626.03
2022-12-24T23:19:20.065Z,101641.75
2022-12-24T23:21:21.663Z,101646.97
2022-12-24T23:23:23.235Z,101648.72
2022-12-24T23:25:25.470Z,101653.06
2022-12-24T23:27:26.953Z,101645.16
2022-12-24T23:29:32.092Z,101647.75
2022-12-24T23:31:34.884Z,101660.75
2022-12-24T23:33:37.308Z,101663.34
2022-12-24T23:35:38.789Z,101659.81
2022-12-24T23:37:40.232Z,101658.03
2022-12-24T23:39:41.690Z,101658.03
2022-12-24T23:41:43.219Z,101651.97
2022-12-24T23:43:45.271Z,101653.69
2022-12-24T23:45:50.395Z,101658.09
2022-12-24T23:47:51.870Z,101653.72
2022-12-24T23:49:53.361Z,101657.22
2022-12-24T23:51:54.848Z,101651.16